KAFN

Details ICAO KAFN
Name Jaffrey Airport Silver Ranch
Region United States
Timezone America/New_York (UTC-5.0)
Plans Departing 0
Arriving 0
Stats Elevation 1,040 ft / 317 m (AMSL)
Location 42.805135° -72.003023°
Runways 1
Magnetic Variation 14.368° W
Sunrise 2017-12-12 12:11:00 UTC / 2017-12-12 07:11:00 Local
Sunset 2017-12-12 21:15:31 UTC / 2017-12-12 16:15:31 Local
Advertisement - Login to hide

Runways

ID Width Length Bearing (true) Bearing (mag) Surface Threshold Offset Overrun Length
16 49 ft / 15 m 2,983 ft / 909 m 148.14° 162.51° Asphalt 0 ft / 0 m 0 ft / 0 m
34 49 ft / 15 m 2,983 ft / 909 m 328.14° 342.51° Asphalt 581 ft / 177 m 0 ft / 0 m

Map

Weather


0- 5 10 15 20 25 30 35+ Temperature / ° C

Clouds and Precipitation
Forecast for 2017-12-13 06:00 UTC. Updated 25 minutes ago

Ground ~20,000 ft ~40,000 ft Winds

METAR

KAFN 130121Z AUTO 00000KT 10SM SCT006 BKN020 OVC040 M02/M02 A2930 RMK AO2 T10171022

TAF

Not found

Frequencies

Recorded 135.87 MHz ASOS
Unicom 122.80 MHz CTAF/Unicom
Warning: Do not use this data for real-world aviation or navigation. No guarantee of current accuracy is given.